createdAt,value
2024-03-05T00:01:53.150Z,8.70
2024-03-05T00:04:21.726Z,8.71
2024-03-05T00:06:50.746Z,8.71
2024-03-05T00:09:18.908Z,8.68
2024-03-05T00:11:47.968Z,8.68
2024-03-05T00:14:15.890Z,8.69
2024-03-05T00:16:44.269Z,8.69
2024-03-05T00:19:13.660Z,8.70
2024-03-05T00:21:41.669Z,8.71
2024-03-05T00:24:09.669Z,8.71
2024-03-05T00:26:39.896Z,8.73
2024-03-05T00:29:07.976Z,8.71
2024-03-05T00:31:36.216Z,8.71
2024-03-05T00:34:04.437Z,8.71
2024-03-05T00:36:33.641Z,8.68
2024-03-05T00:39:01.607Z,8.69
2024-03-05T00:41:29.625Z,8.64
2024-03-05T00:43:59.352Z,8.62
2024-03-05T00:46:27.280Z,8.61
2024-03-05T00:48:57.180Z,8.58
2024-03-05T00:51:24.951Z,8.60
2024-03-05T00:53:54.149Z,8.56
2024-03-05T00:56:22.384Z,8.52
2024-03-05T00:58:51.726Z,8.50
2024-03-05T01:01:20.012Z,8.48
2024-03-05T01:03:48.995Z,8.50
2024-03-05T01:06:16.907Z,8.52
2024-03-05T01:08:44.742Z,8.50
2024-03-05T01:11:14.930Z,8.49
2024-03-05T01:13:43.295Z,8.50
2024-03-05T01:16:12.084Z,8.49
2024-03-05T01:18:40.417Z,8.49
2024-03-05T01:21:08.334Z,8.49
2024-03-05T01:23:36.309Z,8.47
2024-03-05T01:26:04.781Z,8.54
2024-03-05T01:28:34.174Z,8.53
2024-03-05T01:31:02.530Z,8.49
2024-03-05T01:33:31.460Z,8.48
2024-03-05T01:36:13.126Z,8.44
2024-03-05T01:38:41.046Z,8.44
2024-03-05T01:41:12.821Z,8.44
2024-03-05T01:43:43.177Z,8.45
2024-03-05T01:46:15.087Z,8.46
2024-03-05T01:48:44.382Z,8.47
2024-03-05T01:51:13.257Z,8.50
2024-03-05T01:53:41.674Z,8.47
2024-03-05T01:56:10.866Z,8.44
2024-03-05T01:58:44.364Z,8.43
2024-03-05T02:01:14.940Z,8.40
2024-03-05T02:03:42.533Z,8.37
2024-03-05T02:06:12.109Z,8.34
2024-03-05T02:08:41.855Z,8.34
2024-03-05T02:11:10.213Z,8.34
2024-03-05T02:13:38.696Z,8.36
2024-03-05T02:16:08.293Z,8.34
2024-03-05T02:18:36.069Z,8.36
2024-03-05T02:21:07.439Z,8.37
2024-03-05T02:23:35.110Z,8.38
2024-03-05T02:26:03.721Z,8.36
2024-03-05T02:28:31.910Z,8.36
2024-03-05T02:30:59.894Z,8.33
2024-03-05T02:33:27.926Z,8.28
2024-03-05T02:35:59.650Z,8.28
2024-03-05T02:38:28.955Z,8.26
2024-03-05T02:40:56.888Z,8.23
2024-03-05T02:43:24.697Z,8.22
2024-03-05T02:45:52.493Z,8.19
2024-03-05T02:48:20.295Z,8.15
2024-03-05T02:50:48.474Z,8.13
2024-03-05T02:53:16.424Z,8.10
2024-03-05T02:55:46.295Z,8.07
2024-03-05T02:58:14.105Z,8.08
2024-03-05T03:00:42.332Z,8.07
2024-03-05T03:03:10.106Z,8.08
2024-03-05T03:05:39.366Z,8.11
2024-03-05T03:08:07.342Z,8.13
2024-03-05T03:10:35.122Z,8.11
2024-03-05T03:13:04.351Z,8.11
2024-03-05T03:15:32.068Z,8.10
2024-03-05T03:17:59.956Z,8.13
2024-03-05T03:20:27.689Z,8.15
2024-03-05T03:22:55.568Z,8.14
2024-03-05T03:25:23.324Z,8.18
2024-03-05T03:27:51.399Z,8.17
2024-03-05T03:30:21.561Z,8.16
2024-03-05T03:32:51.334Z,8.11
2024-03-05T03:35:19.704Z,8.09
2024-03-05T03:37:47.740Z,8.07
2024-03-05T03:40:22.643Z,8.08
2024-03-05T03:42:51.952Z,8.08
2024-03-05T03:45:21.403Z,8.08
2024-03-05T03:47:49.324Z,8.11
2024-03-05T03:50:17.609Z,8.09
2024-03-05T03:52:45.828Z,8.11
2024-03-05T03:55:13.723Z,8.09
2024-03-05T03:57:41.699Z,8.06
2024-03-05T04:00:18.406Z,8.08
2024-03-05T04:02:48.858Z,8.09
2024-03-05T04:05:16.752Z,8.11
2024-03-05T04:07:44.621Z,8.09
2024-03-05T04:10:12.696Z,8.08
2024-03-05T04:12:41.158Z,8.09
2024-03-05T04:15:10.285Z,8.07
2024-03-05T04:17:38.875Z,8.06
2024-03-05T04:20:10.585Z,8.07
2024-03-05T04:22:39.571Z,8.07
2024-03-05T04:25:08.072Z,8.06
2024-03-05T04:27:38.592Z,8.06
2024-03-05T04:30:11.743Z,8.07
2024-03-05T04:32:42.190Z,8.06
2024-03-05T04:35:12.519Z,8.07
2024-03-05T04:37:41.501Z,8.05
2024-03-05T04:40:11.356Z,8.03
2024-03-05T04:42:39.373Z,8.04
2024-03-05T04:45:08.428Z,8.05
2024-03-05T04:47:37.137Z,8.07
2024-03-05T04:50:06.282Z,8.08
2024-03-05T04:52:35.633Z,8.09
2024-03-05T04:55:03.575Z,8.11
2024-03-05T04:57:31.356Z,8.11
2024-03-05T04:59:59.733Z,8.11
2024-03-05T05:02:27.414Z,8.10
2024-03-05T05:04:55.144Z,8.11
2024-03-05T05:07:24.870Z,8.12
2024-03-05T05:09:53.967Z,8.13
2024-03-05T05:12:21.798Z,8.16
2024-03-05T05:14:50.542Z,8.17
2024-03-05T05:17:18.497Z,8.18
2024-03-05T05:19:46.256Z,8.18
2024-03-05T05:22:14.201Z,8.18
2024-03-05T05:24:43.189Z,8.17
2024-03-05T05:27:12.252Z,8.18
2024-03-05T05:29:42.669Z,8.18
2024-03-05T05:32:10.723Z,8.17
2024-03-05T05:34:38.636Z,8.15
2024-03-05T05:37:06.925Z,8.15
2024-03-05T05:39:34.683Z,8.16
2024-03-05T05:42:02.448Z,8.15
2024-03-05T05:44:31.663Z,8.13
2024-03-05T05:49:32.497Z,8.16
2024-03-05T05:52:00.527Z,8.16
2024-03-05T05:54:30.502Z,8.17
2024-03-05T05:56:58.291Z,8.17
2024-03-05T05:59:25.957Z,8.18
2024-03-05T06:01:55.949Z,8.19
2024-03-05T06:04:23.776Z,8.18
2024-03-05T06:06:52.477Z,8.16
2024-03-05T06:09:28.440Z,8.18
2024-03-05T06:11:57.165Z,8.21
2024-03-05T06:14:25.094Z,8.21
2024-03-05T06:16:52.858Z,8.22
2024-03-05T06:19:21.972Z,8.24
2024-03-05T06:21:50.329Z,8.23
2024-03-05T06:24:18.179Z,8.21
2024-03-05T06:26:46.547Z,8.21
2024-03-05T06:29:15.076Z,8.21
2024-03-05T06:31:42.894Z,8.20
2024-03-05T06:34:12.318Z,8.20
2024-03-05T06:36:42.515Z,8.20
2024-03-05T06:39:19.990Z,8.19
2024-03-05T06:41:49.485Z,8.22
2024-03-05T06:44:22.989Z,8.23
2024-03-05T06:46:51.105Z,8.21
2024-03-05T06:49:28.293Z,8.21
2024-03-05T06:52:17.618Z,8.23
2024-03-05T06:55:02.963Z,8.22
2024-03-05T06:57:31.000Z,8.22
2024-03-05T06:59:59.273Z,8.23
2024-03-05T07:02:31.547Z,8.22
2024-03-05T07:04:59.373Z,8.23
2024-03-05T07:07:28.543Z,8.24
2024-03-05T07:09:56.302Z,8.25
2024-03-05T07:12:25.788Z,8.27
2024-03-05T07:14:53.512Z,8.27
2024-03-05T07:17:21.412Z,8.28
2024-03-05T07:19:49.346Z,8.30
2024-03-05T07:22:17.153Z,8.28
2024-03-05T07:24:46.873Z,8.34
2024-03-05T07:27:14.631Z,8.33
2024-03-05T07:29:42.397Z,8.36
2024-03-05T07:32:11.417Z,8.41
2024-03-05T07:34:39.895Z,8.43
2024-03-05T07:37:07.667Z,8.42
2024-03-05T07:39:35.364Z,8.44
2024-03-05T07:42:04.634Z,8.44
2024-03-05T07:44:34.945Z,8.46
2024-03-05T07:47:03.042Z,8.46
2024-03-05T07:49:30.851Z,8.46
2024-03-05T07:51:58.567Z,8.45
2024-03-05T07:54:26.333Z,8.46
2024-03-05T07:56:54.208Z,8.46
2024-03-05T07:59:23.295Z,8.46
2024-03-05T08:01:50.995Z,8.53
2024-03-05T08:04:18.738Z,8.53
2024-03-05T08:06:46.545Z,8.51
2024-03-05T08:09:14.449Z,8.50
2024-03-05T08:11:42.284Z,8.51
2024-03-05T08:14:10.384Z,8.52
2024-03-05T08:16:40.615Z,8.53
2024-03-05T08:19:08.968Z,8.54
2024-03-05T08:21:36.829Z,8.53
2024-03-05T08:24:04.896Z,8.53
2024-03-05T08:26:32.607Z,8.53
2024-03-05T08:29:00.382Z,8.55
2024-03-05T08:31:28.198Z,8.55
2024-03-05T08:33:58.362Z,8.55
2024-03-05T08:36:26.630Z,8.57
2024-03-05T08:38:54.655Z,8.56
2024-03-05T08:41:22.457Z,8.57
2024-03-05T08:43:50.279Z,8.60
2024-03-05T08:46:18.105Z,8.62
2024-03-05T08:48:45.903Z,8.61
2024-03-05T08:51:15.055Z,8.63
2024-03-05T08:53:42.805Z,8.66
2024-03-05T08:56:10.562Z,8.67
2024-03-05T08:58:38.444Z,8.68
2024-03-05T09:01:07.714Z,8.68
2024-03-05T09:03:36.481Z,8.67
2024-03-05T09:06:06.395Z,8.65
2024-03-05T09:08:35.737Z,8.67
2024-03-05T09:11:06.612Z,8.68
2024-03-05T09:13:35.238Z,8.69
2024-03-05T09:16:02.968Z,8.70
2024-03-05T09:18:30.686Z,8.72
2024-03-05T09:20:58.408Z,8.73
2024-03-05T09:23:26.130Z,8.78
2024-03-05T09:25:55.264Z,8.79
2024-03-05T09:28:23.084Z,8.80
2024-03-05T09:30:50.853Z,8.83
2024-03-05T09:33:18.609Z,8.85
2024-03-05T09:35:46.465Z,8.87
2024-03-05T09:38:17.520Z,8.91
2024-03-05T09:40:45.697Z,8.92
2024-03-05T09:43:15.519Z,8.93
2024-03-05T09:45:43.838Z,8.94
2024-03-05T09:48:12.343Z,8.96
2024-03-05T09:50:41.176Z,8.98
2024-03-05T09:53:09.020Z,8.98
2024-03-05T09:55:36.806Z,9.01
2024-03-05T09:58:10.345Z,9.03
2024-03-05T10:00:39.799Z,9.02
2024-03-05T10:03:09.730Z,9.04
2024-03-05T10:05:38.510Z,9.06
2024-03-05T10:08:07.399Z,9.08
2024-03-05T10:10:35.600Z,9.08
2024-03-05T10:13:03.788Z,9.10
2024-03-05T10:15:31.950Z,9.13
2024-03-05T10:18:01.213Z,9.12
2024-03-05T10:20:30.239Z,9.13
2024-03-05T10:23:00.497Z,9.15
2024-03-05T10:25:29.545Z,9.15
2024-03-05T10:27:58.509Z,9.15
2024-03-05T10:30:32.058Z,9.16
2024-03-05T10:33:03.922Z,9.17
2024-03-05T10:35:34.535Z,9.17
2024-03-05T10:38:08.504Z,9.16
2024-03-05T10:40:37.517Z,9.12
2024-03-05T10:43:06.949Z,9.08
2024-03-05T10:45:38.607Z,9.02
2024-03-05T10:48:11.353Z,9.03
2024-03-05T10:50:42.324Z,9.05
2024-03-05T10:53:11.118Z,9.07
2024-03-05T10:55:40.551Z,9.09
2024-03-05T10:58:38.060Z,9.12
2024-03-05T11:01:08.214Z,9.16
2024-03-05T11:03:40.510Z,9.16
2024-03-05T11:06:09.889Z,9.18
2024-03-05T11:08:38.859Z,9.17
2024-03-05T11:11:09.653Z,9.18
2024-03-05T11:13:38.535Z,9.15
2024-03-05T11:16:07.895Z,9.17
2024-03-05T11:18:37.466Z,9.18
2024-03-05T11:21:09.998Z,9.14
2024-03-05T11:23:38.373Z,9.15
2024-03-05T11:26:08.777Z,9.12
2024-03-05T11:28:37.678Z,9.14
2024-03-05T11:31:15.367Z,9.15
2024-03-05T11:33:45.256Z,9.16
2024-03-05T11:36:21.704Z,9.13
2024-03-05T11:39:05.821Z,9.16
2024-03-05T11:41:34.490Z,9.16
2024-03-05T11:44:04.050Z,9.22
2024-03-05T11:46:46.023Z,9.23
2024-03-05T11:49:14.772Z,9.27
2024-03-05T11:51:46.715Z,9.33
2024-03-05T11:54:15.724Z,9.40
2024-03-05T11:56:46.383Z,9.48
2024-03-05T11:59:14.936Z,9.52
2024-03-05T12:01:45.242Z,9.58
2024-03-05T12:04:15.843Z,9.62
2024-03-05T12:06:52.768Z,9.68
2024-03-05T12:09:22.046Z,9.79
2024-03-05T12:12:04.010Z,9.89
2024-03-05T12:14:34.244Z,10.00
2024-03-05T12:17:05.543Z,10.10
2024-03-05T12:19:34.237Z,10.13
2024-03-05T12:22:03.602Z,10.34
2024-03-05T12:24:32.463Z,10.49
2024-03-05T12:27:01.316Z,10.72
2024-03-05T12:29:31.049Z,10.99
2024-03-05T12:31:59.421Z,11.30
2024-03-05T12:34:28.536Z,11.55
2024-03-05T12:36:56.614Z,11.77
2024-03-05T12:39:25.805Z,11.99
2024-03-05T12:42:04.840Z,12.09
2024-03-05T12:44:33.169Z,12.14
2024-03-05T12:47:11.206Z,12.15
2024-03-05T12:49:46.561Z,12.10
2024-03-05T12:52:25.290Z,12.02
2024-03-05T12:55:00.986Z,11.89
2024-03-05T12:57:30.363Z,11.80
2024-03-05T13:00:00.432Z,11.73
2024-03-05T13:02:28.391Z,11.64
2024-03-05T13:04:58.974Z,11.57
2024-03-05T13:07:27.949Z,11.47
2024-03-05T13:09:56.385Z,11.36
2024-03-05T13:12:25.722Z,11.30
2024-03-05T13:14:53.645Z,11.21
2024-03-05T13:17:22.365Z,11.15
2024-03-05T13:19:50.394Z,11.08
2024-03-05T13:22:18.273Z,11.02
2024-03-05T13:24:46.084Z,10.98
2024-03-05T13:27:14.027Z,10.91
2024-03-05T13:29:43.288Z,10.85
2024-03-05T13:32:12.219Z,10.79
2024-03-05T13:34:40.740Z,10.73
2024-03-05T13:37:10.301Z,10.56
2024-03-05T13:39:45.114Z,10.50
2024-03-05T13:42:27.102Z,10.43
2024-03-05T13:44:56.867Z,10.38
2024-03-05T13:47:25.654Z,10.35
2024-03-05T13:49:53.633Z,10.32
2024-03-05T13:52:21.548Z,10.24
2024-03-05T13:54:49.552Z,10.26
2024-03-05T13:57:18.003Z,10.24
2024-03-05T13:59:45.785Z,10.20
2024-03-05T14:02:15.157Z,10.17
2024-03-05T14:04:42.974Z,10.17
2024-03-05T14:07:11.366Z,10.15
2024-03-05T14:09:39.284Z,10.15
2024-03-05T14:12:13.006Z,10.14
2024-03-05T14:14:43.113Z,10.17
2024-03-05T14:17:11.571Z,10.18
2024-03-05T14:19:40.774Z,10.17
2024-03-05T14:22:08.860Z,10.26
2024-03-05T14:24:38.756Z,10.38
2024-03-05T14:27:06.928Z,10.49
2024-03-05T14:29:34.793Z,10.57
2024-03-05T14:32:05.304Z,10.58
2024-03-05T14:34:33.561Z,10.64
2024-03-05T14:37:04.786Z,10.70
2024-03-05T14:39:32.638Z,10.74
2024-03-05T14:42:02.160Z,10.76
2024-03-05T14:44:30.034Z,10.88
2024-03-05T14:46:58.000Z,11.08
2024-03-05T14:49:26.386Z,11.31
2024-03-05T14:51:55.415Z,11.42
2024-03-05T14:54:25.172Z,11.44
2024-03-05T14:56:52.984Z,11.46
2024-03-05T14:59:21.510Z,11.49
2024-03-05T15:01:52.835Z,11.50
2024-03-05T15:04:20.783Z,11.51
2024-03-05T15:06:48.942Z,11.52
2024-03-05T15:09:17.485Z,11.46
2024-03-05T15:11:47.608Z,11.42
2024-03-05T15:14:15.650Z,11.30
2024-03-05T15:16:44.000Z,11.23
2024-03-05T15:19:12.147Z,11.21
2024-03-05T15:21:40.234Z,11.19
2024-03-05T15:24:08.184Z,11.15
2024-03-05T15:26:36.563Z,11.14
2024-03-05T15:29:10.322Z,11.14
2024-03-05T15:31:38.107Z,11.11
2024-03-05T15:34:06.617Z,11.10
2024-03-05T15:36:34.571Z,11.14
2024-03-05T15:39:04.435Z,11.13
2024-03-05T15:41:32.530Z,11.11
2024-03-05T15:44:00.680Z,11.08
2024-03-05T15:46:29.956Z,11.08
2024-03-05T15:48:57.872Z,11.04
2024-03-05T15:51:25.737Z,11.10
2024-03-05T15:53:53.598Z,11.21
2024-03-05T15:56:35.809Z,11.36
2024-03-05T15:59:21.981Z,11.56
2024-03-05T16:01:51.351Z,11.68
2024-03-05T16:04:39.865Z,11.77
2024-03-05T16:07:10.080Z,11.84
2024-03-05T16:09:38.822Z,11.92
2024-03-05T16:12:12.132Z,12.01
2024-03-05T16:14:42.148Z,11.94
2024-03-05T16:17:11.999Z,11.85
2024-03-05T16:19:39.913Z,11.82
2024-03-05T16:22:09.849Z,12.02
2024-03-05T16:24:38.606Z,11.83
2024-03-05T16:27:06.984Z,11.69
2024-03-05T16:29:34.797Z,11.52
2024-03-05T16:32:03.087Z,11.35
2024-03-05T16:34:32.875Z,11.22
2024-03-05T16:37:00.985Z,11.11
2024-03-05T16:39:28.802Z,11.01
2024-03-05T16:41:57.976Z,10.91
2024-03-05T16:44:26.003Z,10.83
2024-03-05T16:46:54.941Z,10.84
2024-03-05T16:49:22.893Z,10.75
2024-03-05T16:51:52.017Z,10.65
2024-03-05T16:54:19.783Z,10.51
2024-03-05T16:56:47.548Z,10.46
2024-03-05T16:59:16.339Z,10.35
2024-03-05T17:01:44.174Z,10.28
2024-03-05T17:04:15.634Z,10.20
2024-03-05T17:06:44.286Z,10.12
2024-03-05T17:09:15.841Z,10.02
2024-03-05T17:11:45.456Z,9.93
2024-03-05T17:14:13.447Z,9.87
2024-03-05T17:16:43.131Z,9.77
2024-03-05T17:19:12.589Z,9.67
2024-03-05T17:21:40.680Z,9.57
2024-03-05T17:24:08.508Z,9.46
2024-03-05T17:26:37.572Z,9.43
2024-03-05T17:29:08.240Z,9.36
2024-03-05T17:31:36.081Z,9.27
2024-03-05T17:34:04.514Z,9.26
2024-03-05T17:36:32.220Z,9.21
2024-03-05T17:38:59.947Z,9.14
2024-03-05T17:41:27.976Z,9.08
2024-03-05T17:43:57.729Z,8.99
2024-03-05T17:46:26.559Z,8.92
2024-03-05T17:48:54.314Z,8.89
2024-03-05T17:51:22.113Z,8.87
2024-03-05T17:53:49.953Z,8.83
2024-03-05T17:56:17.706Z,8.78
2024-03-05T17:58:45.625Z,8.73
2024-03-05T18:01:15.326Z,8.71
2024-03-05T18:03:45.491Z,8.62
2024-03-05T18:06:17.017Z,8.53
2024-03-05T18:08:47.285Z,8.48
2024-03-05T18:11:15.566Z,8.40
2024-03-05T18:13:44.980Z,8.32
2024-03-05T18:16:14.835Z,8.31
2024-03-05T18:18:42.649Z,8.20
2024-03-05T18:21:10.758Z,8.17
2024-03-05T18:23:38.556Z,8.10
2024-03-05T18:26:07.014Z,8.04
2024-03-05T18:28:36.124Z,7.98
2024-03-05T18:31:05.512Z,7.97
2024-03-05T18:33:34.638Z,7.95
2024-03-05T18:36:03.921Z,7.90
2024-03-05T18:38:31.806Z,7.90
2024-03-05T18:41:01.367Z,7.86
2024-03-05T18:43:31.157Z,7.85
2024-03-05T18:46:00.639Z,7.82
2024-03-05T18:48:29.262Z,7.82
2024-03-05T18:50:58.794Z,7.77
2024-03-05T18:53:36.347Z,7.73
2024-03-05T18:56:11.532Z,7.64
2024-03-05T18:58:39.373Z,7.63
2024-03-05T19:01:07.287Z,7.62
2024-03-05T19:03:35.996Z,7.68
2024-03-05T19:06:05.986Z,7.67
2024-03-05T19:08:33.762Z,7.71
2024-03-05T19:11:02.016Z,7.75
2024-03-05T19:13:30.004Z,7.76
2024-03-05T19:15:57.819Z,7.69
2024-03-05T19:18:25.600Z,7.69
2024-03-05T19:20:53.478Z,7.68
2024-03-05T19:23:23.992Z,7.65
2024-03-05T19:25:51.934Z,7.63
2024-03-05T19:28:20.090Z,7.60
2024-03-05T19:30:48.135Z,7.58
2024-03-05T19:33:16.351Z,7.59
2024-03-05T19:35:45.139Z,7.58
2024-03-05T19:38:14.467Z,7.59
2024-03-05T19:40:44.050Z,7.60
2024-03-05T19:43:11.935Z,7.62
2024-03-05T19:45:39.975Z,7.63
2024-03-05T19:48:08.766Z,7.67
2024-03-05T19:50:36.713Z,7.72
2024-03-05T19:53:04.792Z,7.71
2024-03-05T19:55:33.190Z,7.68
2024-03-05T19:58:02.514Z,7.70
2024-03-05T20:00:30.635Z,7.73
2024-03-05T20:02:58.516Z,7.74
2024-03-05T20:05:27.450Z,7.73
2024-03-05T20:07:55.547Z,7.72
2024-03-05T20:10:23.737Z,7.72
2024-03-05T20:12:51.632Z,7.71
2024-03-05T20:15:21.710Z,7.72
2024-03-05T20:17:49.686Z,7.71
2024-03-05T20:20:18.948Z,7.75
2024-03-05T20:22:48.648Z,7.74
2024-03-05T20:25:23.043Z,7.71
2024-03-05T20:27:52.483Z,7.68
2024-03-05T20:30:23.878Z,7.69
2024-03-05T20:32:52.861Z,7.66
2024-03-05T20:35:21.123Z,7.65
2024-03-05T20:37:50.384Z,7.66
2024-03-05T20:40:19.798Z,7.65
2024-03-05T20:42:48.485Z,7.63
2024-03-05T20:45:16.787Z,7.61
2024-03-05T20:47:47.473Z,7.57
2024-03-05T20:50:15.525Z,7.58
2024-03-05T20:52:43.617Z,7.56
2024-03-05T20:55:11.864Z,7.59
2024-03-05T20:57:40.013Z,7.56
2024-03-05T21:00:13.254Z,7.57
2024-03-05T21:02:42.679Z,7.56
2024-03-05T21:05:14.534Z,7.54
2024-03-05T21:07:44.819Z,7.56
2024-03-05T21:10:15.027Z,7.53
2024-03-05T21:12:43.168Z,7.53
2024-03-05T21:15:13.586Z,7.54
2024-03-05T21:17:42.962Z,7.54
2024-03-05T21:20:13.666Z,7.52
2024-03-05T21:22:42.570Z,7.46
2024-03-05T21:25:11.210Z,7.48
2024-03-05T21:27:40.904Z,7.47
2024-03-05T21:30:12.881Z,7.43
2024-03-05T21:32:43.652Z,7.43
2024-03-05T21:35:13.320Z,7.39
2024-03-05T21:37:41.368Z,7.34
2024-03-05T21:40:13.229Z,7.33
2024-03-05T21:42:42.611Z,7.31
2024-03-05T21:45:13.113Z,7.28
2024-03-05T21:47:41.529Z,7.26
2024-03-05T21:50:12.234Z,7.23
2024-03-05T21:52:45.763Z,7.22
2024-03-05T21:55:14.038Z,7.22
2024-03-05T21:57:41.864Z,7.10
2024-03-05T22:00:12.483Z,7.12
2024-03-05T22:02:41.027Z,7.13
2024-03-05T22:05:09.685Z,7.16
2024-03-05T22:07:38.137Z,7.18
2024-03-05T22:10:08.618Z,7.17
2024-03-05T22:12:38.414Z,7.16
2024-03-05T22:15:07.258Z,7.11
2024-03-05T22:17:35.719Z,7.16
2024-03-05T22:20:03.758Z,7.17
2024-03-05T22:22:32.103Z,7.22
2024-03-05T22:25:00.062Z,7.24
2024-03-05T22:27:29.668Z,7.26
2024-03-05T22:29:57.508Z,7.24
2024-03-05T22:32:25.444Z,7.26
2024-03-05T22:34:53.315Z,7.26
2024-03-05T22:37:21.158Z,7.27
2024-03-05T22:39:48.976Z,7.28
2024-03-05T22:42:16.810Z,7.28
2024-03-05T22:44:46.050Z,7.29
2024-03-05T22:47:13.789Z,7.27
2024-03-05T22:49:41.653Z,7.30
2024-03-05T22:52:10.169Z,7.31
2024-03-05T22:54:37.929Z,7.34
2024-03-05T22:57:05.780Z,7.40
2024-03-05T22:59:34.774Z,7.42
2024-03-05T23:02:05.693Z,7.43
2024-03-05T23:04:33.785Z,7.40
2024-03-05T23:07:01.575Z,7.38
2024-03-05T23:09:29.265Z,7.38
2024-03-05T23:11:57.224Z,7.37
2024-03-05T23:14:25.075Z,7.36
2024-03-05T23:16:52.855Z,7.36
2024-03-05T23:19:21.999Z,7.32
2024-03-05T23:21:49.808Z,7.31
2024-03-05T23:24:17.544Z,7.32
2024-03-05T23:26:48.074Z,7.31
2024-03-05T23:29:17.059Z,7.30
2024-03-05T23:31:46.044Z,7.30
2024-03-05T23:34:14.490Z,7.28
2024-03-05T23:36:43.793Z,7.25
2024-03-05T23:39:12.450Z,7.26
2024-03-05T23:41:40.896Z,7.24
2024-03-05T23:44:08.930Z,7.18
2024-03-05T23:46:37.526Z,7.20
2024-03-05T23:49:05.337Z,7.17
2024-03-05T23:51:33.087Z,7.15
2024-03-05T23:54:02.450Z,7.18
2024-03-05T23:56:30.526Z,7.18
2024-03-05T23:58:58.287Z,7.20
